createdAt,value
2022-08-24T00:00:39.236Z,22.58
2022-08-24T00:03:07.502Z,24.40
2022-08-24T00:05:36.644Z,31.02
2022-08-24T00:08:03.917Z,22.40
2022-08-24T00:10:30.568Z,25.85
2022-08-24T00:12:57.963Z,26.10
2022-08-24T00:15:24.848Z,25.17
2022-08-24T00:17:54.370Z,24.95
2022-08-24T00:20:23.449Z,28.60
2022-08-24T00:22:49.929Z,28.45
2022-08-24T00:25:17.870Z,24.15
2022-08-24T00:27:47.065Z,23.13
2022-08-24T00:30:15.852Z,23.38
2022-08-24T00:32:45.287Z,25.60
2022-08-24T00:35:13.684Z,28.75
2022-08-24T00:37:41.243Z,25.40
2022-08-24T00:40:13.780Z,29.27
2022-08-24T00:42:41.350Z,27.13
2022-08-24T00:45:10.808Z,25.80
2022-08-24T00:47:51.600Z,25.80
2022-08-24T00:50:24.332Z,26.80
2022-08-24T00:52:58.083Z,24.35
2022-08-24T00:55:36.659Z,26.63
2022-08-24T00:58:15.577Z,27.27
2022-08-24T01:00:48.785Z,26.98
2022-08-24T01:03:18.382Z,27.27
2022-08-24T01:05:46.052Z,27.75
2022-08-24T01:08:14.098Z,28.98
2022-08-24T01:10:49.846Z,28.65
2022-08-24T01:13:16.705Z,29.80
2022-08-24T01:15:47.782Z,27.42
2022-08-24T01:18:42.626Z,32.35
2022-08-24T01:21:38.041Z,29.90
2022-08-24T01:24:12.992Z,28.70
2022-08-24T01:26:45.874Z,28.05
2022-08-24T01:29:24.452Z,27.50
2022-08-24T01:31:52.699Z,27.98
2022-08-24T01:34:21.992Z,28.50
2022-08-24T01:36:51.601Z,28.30
2022-08-24T01:39:26.733Z,24.92
2022-08-24T01:41:54.150Z,26.35
2022-08-24T01:44:24.939Z,26.02
2022-08-24T01:46:54.108Z,24.10
2022-08-24T01:49:28.714Z,31.02
2022-08-24T01:51:55.677Z,29.88
2022-08-24T01:54:25.406Z,24.23
2022-08-24T01:56:52.223Z,25.90
2022-08-24T01:59:20.287Z,26.13
2022-08-24T02:01:52.214Z,27.05
2022-08-24T02:04:18.966Z,24.55
2022-08-24T02:06:48.081Z,26.27
2022-08-24T02:09:16.851Z,28.15
2022-08-24T02:11:48.273Z,29.67
2022-08-24T02:14:14.878Z,26.23
2022-08-24T02:16:42.049Z,25.85
2022-08-24T02:19:08.692Z,24.02
2022-08-24T02:21:40.111Z,25.35
2022-08-24T02:24:07.402Z,23.30
2022-08-24T02:26:36.085Z,24.33
2022-08-24T02:29:04.857Z,22.27
2022-08-24T02:31:31.478Z,23.45
2022-08-24T02:33:58.180Z,22.50
2022-08-24T02:36:26.005Z,21.48
2022-08-24T02:38:58.441Z,21.17
2022-08-24T02:41:25.757Z,25.27
2022-08-24T02:43:53.605Z,24.17
2022-08-24T02:46:22.958Z,24.60
2022-08-24T02:48:58.106Z,22.38
2022-08-24T02:51:44.108Z,25.25
2022-08-24T02:54:14.059Z,23.83
2022-08-24T02:56:43.928Z,24.77
2022-08-24T02:59:12.637Z,22.67
2022-08-24T03:01:39.581Z,23.02
2022-08-24T03:04:06.310Z,24.33
2022-08-24T03:06:33.587Z,23.73
2022-08-24T03:09:02.336Z,25.65
2022-08-24T03:11:29.016Z,23.17
2022-08-24T03:13:59.189Z,26.83
2022-08-24T03:16:27.334Z,23.45
2022-08-24T03:18:54.024Z,27.50
2022-08-24T03:21:23.720Z,28.30
2022-08-24T03:23:50.390Z,24.17
2022-08-24T03:26:17.167Z,22.20
2022-08-24T03:28:44.503Z,24.48
2022-08-24T03:31:12.427Z,22.70
2022-08-24T03:33:39.094Z,23.73
2022-08-24T03:36:06.222Z,23.40
2022-08-24T03:38:32.812Z,24.15
2022-08-24T03:40:59.374Z,22.85
2022-08-24T03:43:44.976Z,24.70
2022-08-24T03:46:12.443Z,24.17
2022-08-24T03:48:44.280Z,23.92
2022-08-24T03:51:13.105Z,27.33
2022-08-24T03:53:42.470Z,24.65
2022-08-24T03:56:11.085Z,27.15
2022-08-24T03:58:41.691Z,24.75
2022-08-24T04:01:09.260Z,24.90
2022-08-24T04:03:38.424Z,23.98
2022-08-24T04:06:05.751Z,25.05
2022-08-24T04:08:35.053Z,30.15
2022-08-24T04:11:02.632Z,26.30
2022-08-24T04:13:32.038Z,27.55
2022-08-24T04:16:10.126Z,26.83
2022-08-24T04:18:37.091Z,27.55
2022-08-24T04:21:04.196Z,24.13
2022-08-24T04:23:47.684Z,22.02
2022-08-24T04:26:43.920Z,23.45
2022-08-24T04:29:09.449Z,20.52
2022-08-24T04:31:38.049Z,20.63
2022-08-24T04:34:09.921Z,18.85
2022-08-24T04:36:36.506Z,19.27
2022-08-24T04:39:03.656Z,19.90
2022-08-24T04:41:31.324Z,18.55
2022-08-24T04:43:59.412Z,17.80
2022-08-24T04:46:26.910Z,18.73
2022-08-24T04:48:55.985Z,18.60
2022-08-24T04:51:25.024Z,17.17
2022-08-24T04:53:51.825Z,17.65
2022-08-24T04:56:26.314Z,16.88
2022-08-24T04:58:55.548Z,17.45
2022-08-24T05:01:24.664Z,21.88
2022-08-24T05:03:54.154Z,19.80
2022-08-24T05:06:23.199Z,17.38
2022-08-24T05:08:52.027Z,17.08
2022-08-24T05:11:20.710Z,18.65
2022-08-24T05:13:48.204Z,18.02
2022-08-24T05:16:17.873Z,14.95
2022-08-24T05:18:48.317Z,13.63
2022-08-24T05:21:17.795Z,12.48
2022-08-24T05:23:47.873Z,12.27
2022-08-24T05:26:26.073Z,12.70
2022-08-24T05:29:00.555Z,15.23
2022-08-24T05:31:29.865Z,13.05
2022-08-24T05:33:57.822Z,15.23
2022-08-24T05:36:30.701Z,15.93
2022-08-24T05:39:00.644Z,14.25
2022-08-24T05:41:28.488Z,13.88
2022-08-24T05:43:55.655Z,12.18
2022-08-24T05:46:22.550Z,13.23
2022-08-24T05:48:52.819Z,14.52
2022-08-24T05:51:20.790Z,15.55
2022-08-24T05:53:47.799Z,20.17
2022-08-24T05:56:17.094Z,15.07
2022-08-24T05:58:44.431Z,15.77
2022-08-24T06:01:19.091Z,14.93
2022-08-24T06:03:45.803Z,15.30
2022-08-24T06:06:13.517Z,15.63
2022-08-24T06:08:43.276Z,17.50
2022-08-24T06:11:12.890Z,21.20
2022-08-24T06:13:41.705Z,18.20
2022-08-24T06:16:22.225Z,16.95
2022-08-24T06:18:49.936Z,15.82
2022-08-24T06:21:20.204Z,19.40
2022-08-24T06:23:48.143Z,18.08
2022-08-24T06:26:33.657Z,20.95
2022-08-24T06:29:03.186Z,27.75
2022-08-24T06:31:30.008Z,17.15
2022-08-24T06:34:06.103Z,23.10
2022-08-24T06:36:32.680Z,19.48
2022-08-24T06:38:59.739Z,20.52
2022-08-24T06:41:26.652Z,21.77
2022-08-24T06:43:53.322Z,19.85
2022-08-24T06:46:32.022Z,22.45
2022-08-24T06:48:59.493Z,24.48
2022-08-24T06:51:26.029Z,26.85
2022-08-24T06:53:56.242Z,24.48
2022-08-24T06:56:23.033Z,25.77
2022-08-24T06:58:49.775Z,21.58
2022-08-24T07:01:22.953Z,23.33
2022-08-24T07:03:50.139Z,24.25
2022-08-24T07:06:18.199Z,27.98
2022-08-24T07:08:44.865Z,23.58
2022-08-24T07:11:14.905Z,23.67
2022-08-24T07:13:42.009Z,19.45
2022-08-24T07:16:10.180Z,19.50
2022-08-24T07:18:37.529Z,18.58
2022-08-24T07:21:08.135Z,23.65
2022-08-24T07:23:41.811Z,23.15
2022-08-24T07:26:20.807Z,18.63
2022-08-24T07:29:04.948Z,18.98
2022-08-24T07:31:35.549Z,19.08
2022-08-24T07:34:04.024Z,22.38
2022-08-24T07:36:30.852Z,16.63
2022-08-24T07:38:58.361Z,17.10
2022-08-24T07:44:13.700Z,14.38
2022-08-24T07:46:41.636Z,14.13
2022-08-24T07:49:29.273Z,17.88
2022-08-24T07:52:03.461Z,18.15
2022-08-24T07:54:30.047Z,16.55
2022-08-24T07:56:59.861Z,16.40
2022-08-24T07:59:26.399Z,20.33
2022-08-24T08:01:53.006Z,16.27
2022-08-24T08:04:22.108Z,19.30
2022-08-24T08:06:49.302Z,15.23
2022-08-24T08:09:16.003Z,13.80
2022-08-24T08:11:42.571Z,19.08
2022-08-24T08:14:09.200Z,23.15
2022-08-24T08:16:35.932Z,15.40
2022-08-24T08:19:12.255Z,17.83
2022-08-24T08:22:12.448Z,16.05
2022-08-24T08:24:43.856Z,14.20
2022-08-24T08:27:12.108Z,15.02
2022-08-24T08:29:43.376Z,11.88
2022-08-24T08:32:16.999Z,11.27
2022-08-24T08:34:44.859Z,12.68
2022-08-24T08:37:12.369Z,13.48
2022-08-24T08:39:40.590Z,13.38
2022-08-24T08:42:58.708Z,12.10
2022-08-24T08:45:39.619Z,13.57
2022-08-24T08:48:32.345Z,11.70
2022-08-24T08:51:04.927Z,9.75
2022-08-24T08:53:45.334Z,11.60
2022-08-24T08:56:35.901Z,13.75
2022-08-24T08:59:27.338Z,9.65
2022-08-24T09:02:11.396Z,11.45
2022-08-24T09:05:19.565Z,12.10
2022-08-24T09:08:09.009Z,11.27
2022-08-24T09:10:44.748Z,9.27
2022-08-24T09:13:35.943Z,10.95
2022-08-24T09:16:21.052Z,8.35
2022-08-24T09:19:25.999Z,10.43
2022-08-24T09:22:03.286Z,7.82
2022-08-24T09:24:51.552Z,7.82
2022-08-24T09:27:33.190Z,7.47
2022-08-24T09:30:18.585Z,10.70
2022-08-24T09:33:10.451Z,8.77
2022-08-24T09:35:58.625Z,8.95
2022-08-24T09:38:57.173Z,6.40
2022-08-24T09:41:54.059Z,6.82
2022-08-24T09:44:40.367Z,5.38
2022-08-24T09:47:40.666Z,7.20
2022-08-24T09:50:07.205Z,4.57
2022-08-24T09:52:55.307Z,5.85
2022-08-24T09:55:33.685Z,7.85
2022-08-24T09:58:22.862Z,6.47
2022-08-24T10:01:10.318Z,6.53
2022-08-24T10:04:07.368Z,3.75
2022-08-24T10:06:53.383Z,5.63
2022-08-24T10:09:52.562Z,5.50
2022-08-24T10:12:43.383Z,5.82
2022-08-24T10:15:19.044Z,2.28
2022-08-24T10:17:54.581Z,5.88
2022-08-24T10:20:29.232Z,10.15
2022-08-24T10:23:11.071Z,5.43
2022-08-24T10:25:44.320Z,4.50
2022-08-24T10:28:44.728Z,7.65
2022-08-24T10:31:39.100Z,4.13
2022-08-24T10:34:43.690Z,3.78
2022-08-24T10:37:42.382Z,1.90
2022-08-24T10:40:28.752Z,5.20
2022-08-24T10:43:31.049Z,2.97
2022-08-24T10:46:19.487Z,5.35
2022-08-24T10:49:18.789Z,2.50
2022-08-24T10:52:09.154Z,4.28
2022-08-24T10:54:39.578Z,3.78
2022-08-24T10:57:15.321Z,3.80
2022-08-24T10:59:54.009Z,2.88
2022-08-24T11:02:26.452Z,4.05
2022-08-24T11:05:01.356Z,2.55
2022-08-24T11:07:28.885Z,4.68
2022-08-24T11:10:01.830Z,4.15
2022-08-24T11:12:33.383Z,5.38
2022-08-24T11:15:19.168Z,3.72
2022-08-24T11:17:55.121Z,2.08
2022-08-24T11:20:40.269Z,6.70
2022-08-24T11:23:14.842Z,4.80
2022-08-24T11:25:53.338Z,7.45
2022-08-24T11:28:22.752Z,6.00
2022-08-24T11:30:49.418Z,3.83
2022-08-24T11:33:35.287Z,5.97
2022-08-24T11:36:02.726Z,2.67
2022-08-24T11:38:34.913Z,4.88
2022-08-24T11:41:33.367Z,3.53
2022-08-24T11:44:08.513Z,3.15
2022-08-24T11:46:57.272Z,3.95
2022-08-24T11:49:37.123Z,3.13
2022-08-24T11:52:15.977Z,1.58
2022-08-24T11:55:15.209Z,2.78
2022-08-24T11:57:55.789Z,2.72
2022-08-24T12:00:26.958Z,2.80
2022-08-24T12:03:10.546Z,1.45
2022-08-24T12:05:40.028Z,2.17
2022-08-24T12:08:31.206Z,0.95
2022-08-24T12:11:29.783Z,2.65
2022-08-24T12:14:09.894Z,1.35
2022-08-24T12:16:59.702Z,2.20
2022-08-24T12:19:31.559Z,2.70
2022-08-24T12:22:03.506Z,4.07
2022-08-24T12:24:45.687Z,4.80
2022-08-24T12:27:18.107Z,2.13
2022-08-24T12:29:51.679Z,2.90
2022-08-24T12:32:30.497Z,2.60
2022-08-24T12:35:09.131Z,4.18
2022-08-24T12:38:11.160Z,2.28
2022-08-24T12:40:48.114Z,1.42
2022-08-24T12:43:39.134Z,3.00
2022-08-24T12:46:06.949Z,3.33
2022-08-24T12:48:37.579Z,2.72
2022-08-24T12:51:32.509Z,2.78
2022-08-24T12:54:12.342Z,2.60
2022-08-24T12:56:47.936Z,2.17
2022-08-24T12:59:25.541Z,4.68
2022-08-24T13:02:08.216Z,2.58
2022-08-24T13:04:49.955Z,2.83
2022-08-24T13:07:19.502Z,3.15
2022-08-24T13:09:49.386Z,6.85
2022-08-24T13:12:43.945Z,3.30
2022-08-24T13:15:31.603Z,2.95
2022-08-24T13:18:13.976Z,2.55
2022-08-24T13:20:43.838Z,4.20
2022-08-24T13:23:16.186Z,3.75
2022-08-24T13:25:51.645Z,5.22
2022-08-24T13:28:21.021Z,4.15
2022-08-24T13:30:53.926Z,4.38
2022-08-24T13:33:42.093Z,3.55
2022-08-24T13:36:31.674Z,6.88
2022-08-24T13:39:04.898Z,1.63
2022-08-24T13:41:37.415Z,5.07
2022-08-24T13:44:22.358Z,2.00
2022-08-24T13:47:20.268Z,4.50
2022-08-24T13:50:37.875Z,2.97
2022-08-24T13:53:35.203Z,3.40
2022-08-24T13:56:28.318Z,1.10
2022-08-24T13:59:36.296Z,2.60
2022-08-24T14:02:27.628Z,3.38
2022-08-24T14:05:30.852Z,3.67
2022-08-24T14:08:10.368Z,3.53
2022-08-24T14:10:55.590Z,4.93
2022-08-24T14:13:47.909Z,1.73
2022-08-24T14:16:57.567Z,2.83
2022-08-24T14:19:53.970Z,3.88
2022-08-24T14:22:23.535Z,3.70
2022-08-24T14:25:12.447Z,6.45
2022-08-24T14:27:42.641Z,1.98
2022-08-24T14:30:20.473Z,2.22
2022-08-24T14:32:59.266Z,3.15
2022-08-24T14:35:38.287Z,3.22
2022-08-24T14:38:26.422Z,5.55
2022-08-24T14:40:52.935Z,8.10
2022-08-24T14:43:38.100Z,3.22
2022-08-24T14:46:10.446Z,3.20
2022-08-24T14:49:24.632Z,1.55
2022-08-24T14:51:51.436Z,1.92
2022-08-24T14:54:17.883Z,6.13
2022-08-24T14:56:59.856Z,10.68
2022-08-24T15:00:04.460Z,8.60
2022-08-24T15:02:55.943Z,3.58
2022-08-24T15:05:31.666Z,1.70
2022-08-24T15:08:06.176Z,4.57
2022-08-24T15:10:39.102Z,4.53
2022-08-24T15:13:27.449Z,2.03
2022-08-24T15:16:08.041Z,4.32
2022-08-24T15:18:45.545Z,2.00
2022-08-24T15:21:24.369Z,1.90
2022-08-24T15:24:33.043Z,2.05
2022-08-24T15:27:24.029Z,3.08
2022-08-24T15:30:02.908Z,1.95
2022-08-24T15:32:51.960Z,5.40
2022-08-24T15:35:32.883Z,5.13
2022-08-24T15:38:18.324Z,3.17
2022-08-24T15:40:46.404Z,3.55
2022-08-24T15:43:14.512Z,4.30
2022-08-24T15:45:49.679Z,6.22
2022-08-24T15:48:19.683Z,7.47
2022-08-24T15:50:48.544Z,8.90
2022-08-24T15:53:30.156Z,2.67
2022-08-24T15:55:57.322Z,3.70
2022-08-24T15:58:36.597Z,3.10
2022-08-24T16:01:29.545Z,3.33
2022-08-24T16:04:06.683Z,3.92
2022-08-24T16:06:33.124Z,3.67
2022-08-24T16:09:04.154Z,2.83
2022-08-24T16:11:38.459Z,4.07
2022-08-24T16:14:11.373Z,3.85
2022-08-24T16:16:43.724Z,5.00
2022-08-24T16:19:40.001Z,3.60
2022-08-24T16:22:12.611Z,4.00
2022-08-24T16:24:41.619Z,4.57
2022-08-24T16:27:08.090Z,4.22
2022-08-24T16:29:38.821Z,3.50
2022-08-24T16:32:31.993Z,4.00
2022-08-24T16:35:08.470Z,4.15
2022-08-24T16:37:35.407Z,4.50
2022-08-24T16:40:02.094Z,3.03
2022-08-24T16:42:30.380Z,3.08
2022-08-24T16:44:59.191Z,2.38
2022-08-24T16:47:28.949Z,2.97
2022-08-24T16:49:55.890Z,4.30
2022-08-24T16:52:22.804Z,4.45
2022-08-24T16:54:50.433Z,3.70
2022-08-24T16:57:20.952Z,5.40
2022-08-24T16:59:49.068Z,7.53
2022-08-24T17:02:18.271Z,2.25
2022-08-24T17:04:45.153Z,6.57
2022-08-24T17:07:15.618Z,5.43
2022-08-24T17:09:44.621Z,5.50
2022-08-24T17:12:11.641Z,3.22
2022-08-24T17:14:39.662Z,8.07
2022-08-24T17:17:10.262Z,7.30
2022-08-24T17:19:37.757Z,3.65
2022-08-24T17:22:08.895Z,7.55
2022-08-24T17:24:39.027Z,4.28
2022-08-24T17:27:06.938Z,5.30
2022-08-24T17:29:36.080Z,10.43
2022-08-24T17:32:02.949Z,5.03
2022-08-24T17:34:32.234Z,7.80
2022-08-24T17:36:59.032Z,5.50
2022-08-24T17:39:25.765Z,5.95
2022-08-24T17:41:54.046Z,2.88
2022-08-24T17:44:25.814Z,2.80
2022-08-24T17:46:55.323Z,4.18
2022-08-24T17:49:22.134Z,4.05
2022-08-24T17:51:51.020Z,3.10
2022-08-24T17:54:18.209Z,2.25
2022-08-24T17:56:50.883Z,6.68
2022-08-24T17:59:29.684Z,4.93
2022-08-24T18:01:59.887Z,4.55
2022-08-24T18:04:29.839Z,5.05
2022-08-24T18:06:58.601Z,6.13
2022-08-24T18:09:33.003Z,6.28
2022-08-24T18:12:05.527Z,6.28
2022-08-24T18:14:35.196Z,5.85
2022-08-24T18:17:04.706Z,6.60
2022-08-24T18:19:33.812Z,5.40
2022-08-24T18:22:01.911Z,3.65
2022-08-24T18:24:32.571Z,6.88
2022-08-24T18:27:18.194Z,3.95
2022-08-24T18:29:46.757Z,5.10
2022-08-24T18:32:21.515Z,7.35
2022-08-24T18:34:48.097Z,9.27
2022-08-24T18:37:15.039Z,5.53
2022-08-24T18:39:41.560Z,8.32
2022-08-24T18:42:11.497Z,9.73
2022-08-24T18:44:39.522Z,4.88
2022-08-24T18:47:07.287Z,9.18
2022-08-24T18:49:36.331Z,6.07
2022-08-24T18:52:03.700Z,4.90
2022-08-24T18:54:36.378Z,5.20
2022-08-24T18:57:07.049Z,5.50
2022-08-24T18:59:35.439Z,4.70
2022-08-24T19:02:32.874Z,8.85
2022-08-24T19:05:06.462Z,4.85
2022-08-24T19:07:39.875Z,5.55
2022-08-24T19:10:08.983Z,5.78
2022-08-24T19:12:40.409Z,7.35
2022-08-24T19:15:31.942Z,9.57
2022-08-24T19:17:58.920Z,5.32
2022-08-24T19:20:27.924Z,5.32
2022-08-24T19:23:04.973Z,7.80
2022-08-24T19:25:32.211Z,7.32
2022-08-24T19:27:58.781Z,6.55
2022-08-24T19:30:27.945Z,6.10
2022-08-24T19:32:59.320Z,6.38
2022-08-24T19:35:26.421Z,4.35
2022-08-24T19:37:54.047Z,5.80
2022-08-24T19:40:21.061Z,5.25
2022-08-24T19:42:50.953Z,4.28
2022-08-24T19:45:53.180Z,6.53
2022-08-24T19:48:19.796Z,6.13
2022-08-24T19:50:46.385Z,5.95
2022-08-24T19:53:13.468Z,6.07
2022-08-24T19:55:40.110Z,9.15
2022-08-24T19:58:23.754Z,4.15
2022-08-24T20:00:57.745Z,6.75
2022-08-24T20:03:25.010Z,4.55
2022-08-24T20:05:51.837Z,3.75
2022-08-24T20:08:19.993Z,4.07
2022-08-24T20:10:47.125Z,8.88
2022-08-24T20:13:16.244Z,7.70
2022-08-24T20:15:43.040Z,6.80
2022-08-24T20:18:09.815Z,6.32
2022-08-24T20:20:36.413Z,4.20
2022-08-24T20:23:06.348Z,6.03
2022-08-24T20:25:39.991Z,4.65
2022-08-24T20:28:28.291Z,10.52
2022-08-24T20:30:56.086Z,4.18
2022-08-24T20:33:23.847Z,5.00
2022-08-24T20:35:50.967Z,6.07
2022-08-24T20:38:20.092Z,5.15
2022-08-24T20:40:48.046Z,4.45
2022-08-24T20:43:14.654Z,8.45
2022-08-24T20:45:41.792Z,5.13
2022-08-24T20:48:12.114Z,10.02
2022-08-24T20:50:39.519Z,7.45
2022-08-24T20:53:06.433Z,8.52
2022-08-24T20:55:33.119Z,8.90
2022-08-24T20:58:03.504Z,4.32
2022-08-24T21:00:32.262Z,6.88
2022-08-24T21:02:58.858Z,7.03
2022-08-24T21:05:25.545Z,6.28
2022-08-24T21:07:52.152Z,9.57
2022-08-24T21:10:21.414Z,6.75
2022-08-24T21:12:52.613Z,7.85
2022-08-24T21:15:19.356Z,8.07
2022-08-24T21:17:45.865Z,14.43
2022-08-24T21:20:18.024Z,5.32
2022-08-24T21:22:46.170Z,6.82
2022-08-24T21:25:14.465Z,7.85
2022-08-24T21:27:44.155Z,7.15
2022-08-24T21:30:14.915Z,8.48
2022-08-24T21:33:00.328Z,6.32
2022-08-24T21:35:27.058Z,5.07
2022-08-24T21:37:53.978Z,6.57
2022-08-24T21:40:21.912Z,8.93
2022-08-24T21:42:49.108Z,5.22
2022-08-24T21:45:15.835Z,7.30
2022-08-24T21:47:42.650Z,8.35
2022-08-24T21:50:09.997Z,4.80
2022-08-24T21:52:37.255Z,5.50
2022-08-24T21:55:09.667Z,6.05
2022-08-24T21:57:40.485Z,7.60
2022-08-24T22:00:11.850Z,6.13
2022-08-24T22:02:38.988Z,7.28
2022-08-24T22:05:06.100Z,4.75
2022-08-24T22:07:32.783Z,4.75
2022-08-24T22:09:59.554Z,5.35
2022-08-24T22:12:26.180Z,6.97
2022-08-24T22:14:52.755Z,4.20
2022-08-24T22:17:19.275Z,5.85
2022-08-24T22:19:45.848Z,8.50
2022-08-24T22:22:12.376Z,5.28
2022-08-24T22:24:38.935Z,5.00
2022-08-24T22:27:05.600Z,8.20
2022-08-24T22:29:33.486Z,7.65
2022-08-24T22:32:00.108Z,5.30
2022-08-24T22:34:26.678Z,5.28
2022-08-24T22:36:56.873Z,5.35
2022-08-24T22:39:23.474Z,5.97
2022-08-24T22:41:50.021Z,5.20
2022-08-24T22:44:21.263Z,7.85
2022-08-24T22:46:54.168Z,4.85
2022-08-24T22:49:22.878Z,5.53
2022-08-24T22:51:49.722Z,5.47
2022-08-24T22:54:17.403Z,7.95
2022-08-24T22:56:47.413Z,4.88
2022-08-24T22:59:20.247Z,6.05
2022-08-24T23:01:48.794Z,9.45
2022-08-24T23:04:21.362Z,7.90
2022-08-24T23:06:48.007Z,6.82
2022-08-24T23:09:14.692Z,8.38
2022-08-24T23:11:42.303Z,8.70
2022-08-24T23:14:10.076Z,8.02
2022-08-24T23:16:38.707Z,9.48
2022-08-24T23:19:25.547Z,7.55
2022-08-24T23:21:53.785Z,9.00
2022-08-24T23:24:20.824Z,6.70
2022-08-24T23:26:50.201Z,11.80
2022-08-24T23:29:17.373Z,8.55
2022-08-24T23:31:47.356Z,7.68
2022-08-24T23:34:15.165Z,11.70
2022-08-24T23:36:43.225Z,8.15
2022-08-24T23:39:11.695Z,7.88
2022-08-24T23:41:42.536Z,9.05
2022-08-24T23:44:13.921Z,7.35
2022-08-24T23:46:41.175Z,8.15
2022-08-24T23:49:08.786Z,10.77
2022-08-24T23:51:36.437Z,7.13
2022-08-24T23:54:03.657Z,8.75
2022-08-24T23:56:33.255Z,8.85
2022-08-24T23:59:03.404Z,8.70
